createdAt,value
2023-05-12T00:01:21.708Z,15.73
2023-05-12T00:03:49.895Z,15.00
2023-05-12T00:06:18.474Z,15.32
2023-05-12T00:08:46.219Z,14.20
2023-05-12T00:11:14.104Z,15.52
2023-05-12T00:13:41.986Z,15.07
2023-05-12T00:16:15.770Z,15.05
2023-05-12T00:18:45.550Z,15.43
2023-05-12T00:21:13.830Z,14.93
2023-05-12T00:23:41.712Z,15.18
2023-05-12T00:26:09.593Z,16.20
2023-05-12T00:28:39.671Z,17.20
2023-05-12T00:31:10.135Z,17.08
2023-05-12T00:33:38.809Z,16.52
2023-05-12T00:36:07.134Z,16.27
2023-05-12T00:38:34.926Z,15.77
2023-05-12T00:41:04.328Z,17.35
2023-05-12T00:43:35.477Z,15.70
2023-05-12T00:46:06.242Z,16.45
2023-05-12T00:48:34.441Z,15.13
2023-05-12T00:51:04.652Z,16.38
2023-05-12T00:53:45.090Z,14.70
2023-05-12T00:56:18.664Z,14.70
2023-05-12T00:58:47.804Z,15.18
2023-05-12T01:01:17.105Z,14.45
2023-05-12T01:03:47.091Z,15.60
2023-05-12T01:06:53.549Z,15.82
2023-05-12T01:09:21.994Z,16.63
2023-05-12T01:11:50.553Z,16.27
2023-05-12T01:14:19.758Z,15.38
2023-05-12T01:16:53.992Z,14.75
2023-05-12T01:19:40.690Z,15.00
2023-05-12T01:22:12.340Z,15.05
2023-05-12T01:24:50.302Z,15.35
2023-05-12T01:27:19.477Z,15.60
2023-05-12T01:29:48.446Z,16.30
2023-05-12T01:32:19.055Z,15.65
2023-05-12T01:34:47.145Z,16.48
2023-05-12T01:37:16.435Z,15.83
2023-05-12T01:39:45.360Z,15.95
2023-05-12T01:42:22.682Z,16.25
2023-05-12T01:44:59.383Z,13.85
2023-05-12T01:47:28.187Z,13.63
2023-05-12T01:50:16.326Z,14.57
2023-05-12T01:52:49.250Z,14.63
2023-05-12T01:55:19.587Z,14.57
2023-05-12T01:57:56.797Z,14.55
2023-05-12T02:00:25.386Z,14.13
2023-05-12T02:02:57.058Z,16.65
2023-05-12T02:05:26.216Z,14.20
2023-05-12T02:07:55.209Z,15.30
2023-05-12T02:10:23.596Z,14.37
2023-05-12T02:12:51.518Z,15.95
2023-05-12T02:15:19.194Z,15.65
2023-05-12T02:17:48.312Z,15.52
2023-05-12T02:20:18.817Z,15.77
2023-05-12T02:22:46.772Z,14.80
2023-05-12T02:25:14.605Z,13.88
2023-05-12T02:27:49.019Z,16.23
2023-05-12T02:30:18.769Z,16.30
2023-05-12T02:32:47.769Z,13.52
2023-05-12T02:35:15.984Z,16.30
2023-05-12T02:37:43.709Z,14.50
2023-05-12T02:40:12.355Z,14.05
2023-05-12T02:42:45.584Z,15.93
2023-05-12T02:45:13.571Z,16.50
2023-05-12T02:47:42.630Z,17.23
2023-05-12T02:50:11.440Z,17.05
2023-05-12T02:52:39.344Z,16.40
2023-05-12T02:55:07.949Z,17.08
2023-05-12T02:57:35.851Z,16.70
2023-05-12T03:00:08.053Z,16.35
2023-05-12T03:02:39.738Z,16.65
2023-05-12T03:05:09.301Z,16.70
2023-05-12T03:07:37.977Z,17.23
2023-05-12T03:10:06.399Z,15.43
2023-05-12T03:12:34.463Z,16.95
2023-05-12T03:15:03.054Z,17.05
2023-05-12T03:17:31.749Z,17.05
2023-05-12T03:19:59.602Z,16.98
2023-05-12T03:22:27.514Z,16.90
2023-05-12T03:24:57.940Z,16.13
2023-05-12T03:27:25.850Z,17.35
2023-05-12T03:29:54.441Z,16.05
2023-05-12T03:32:22.340Z,15.93
2023-05-12T03:34:50.507Z,15.77
2023-05-12T03:37:18.683Z,16.92
2023-05-12T03:39:46.681Z,15.93
2023-05-12T03:42:15.111Z,16.35
2023-05-12T03:44:43.894Z,14.43
2023-05-12T03:47:12.686Z,15.20
2023-05-12T03:49:41.136Z,15.05
2023-05-12T03:52:08.843Z,14.07
2023-05-12T03:54:38.112Z,15.13
2023-05-12T03:57:06.713Z,16.20
2023-05-12T03:59:34.872Z,15.70
2023-05-12T04:02:03.421Z,14.90
2023-05-12T04:04:31.181Z,14.80
2023-05-12T04:07:00.373Z,14.43
2023-05-12T04:09:28.585Z,17.35
2023-05-12T04:11:56.284Z,14.35
2023-05-12T04:14:31.830Z,15.85
2023-05-12T04:17:07.815Z,17.00
2023-05-12T04:19:36.163Z,15.48
2023-05-12T04:22:04.309Z,16.60
2023-05-12T04:24:32.361Z,14.73
2023-05-12T04:27:00.720Z,16.13
2023-05-12T04:29:28.635Z,15.57
2023-05-12T04:31:56.641Z,16.08
2023-05-12T04:34:24.575Z,15.45
2023-05-12T04:36:53.085Z,16.33
2023-05-12T04:39:21.638Z,14.90
2023-05-12T04:41:49.814Z,15.35
2023-05-12T04:44:18.565Z,16.85
2023-05-12T04:46:46.480Z,14.23
2023-05-12T04:49:14.624Z,14.98
2023-05-12T04:51:44.586Z,14.88
2023-05-12T04:54:12.526Z,14.40
2023-05-12T04:56:40.501Z,15.57
2023-05-12T04:59:09.198Z,15.55
2023-05-12T05:01:37.112Z,16.13
2023-05-12T05:04:09.090Z,15.23
2023-05-12T05:06:37.123Z,15.60
2023-05-12T05:09:05.565Z,16.75
2023-05-12T05:11:33.657Z,17.00
2023-05-12T05:14:01.538Z,16.35
2023-05-12T05:16:29.794Z,16.10
2023-05-12T05:18:58.562Z,17.23
2023-05-12T05:21:26.968Z,17.92
2023-05-12T05:23:54.618Z,16.25
2023-05-12T05:26:23.647Z,16.83
2023-05-12T05:28:55.187Z,16.50
2023-05-12T05:31:25.020Z,16.45
2023-05-12T05:33:52.762Z,17.00
2023-05-12T05:36:23.075Z,17.02
2023-05-12T05:38:52.303Z,16.58
2023-05-12T05:41:23.074Z,15.40
2023-05-12T05:43:50.890Z,17.65
2023-05-12T05:46:19.811Z,16.08
2023-05-12T05:48:48.996Z,16.77
2023-05-12T05:51:17.754Z,15.60
2023-05-12T05:53:45.575Z,18.05
2023-05-12T05:56:14.811Z,15.97
2023-05-12T05:58:44.053Z,15.87
2023-05-12T06:01:13.152Z,15.50
2023-05-12T06:03:42.840Z,16.15
2023-05-12T06:06:10.771Z,14.55
2023-05-12T06:08:38.656Z,14.00
2023-05-12T06:11:06.803Z,14.63
2023-05-12T06:13:34.470Z,13.55
2023-05-12T06:16:02.154Z,13.45
2023-05-12T06:18:29.941Z,13.27
2023-05-12T06:20:57.839Z,12.57
2023-05-12T06:23:25.742Z,11.70
2023-05-12T06:25:53.589Z,11.15
2023-05-12T06:28:21.376Z,12.20
2023-05-12T06:30:49.372Z,12.70
2023-05-12T06:33:18.539Z,12.68
2023-05-12T06:35:46.296Z,11.23
2023-05-12T06:38:14.911Z,11.45
2023-05-12T06:40:45.667Z,12.90
2023-05-12T06:43:13.498Z,10.60
2023-05-12T06:45:46.131Z,10.13
2023-05-12T06:48:14.061Z,9.60
2023-05-12T06:50:42.368Z,8.82
2023-05-12T06:53:10.469Z,9.30
2023-05-12T06:55:38.429Z,9.55
2023-05-12T06:58:06.941Z,10.20
2023-05-12T07:00:35.660Z,9.45
2023-05-12T07:03:04.761Z,10.27
2023-05-12T07:05:32.796Z,8.27
2023-05-12T07:08:00.793Z,9.00
2023-05-12T07:10:28.582Z,8.63
2023-05-12T07:12:56.456Z,8.48
2023-05-12T07:15:24.382Z,9.27
2023-05-12T07:17:52.424Z,8.80
2023-05-12T07:20:23.283Z,8.85
2023-05-12T07:22:52.585Z,9.48
2023-05-12T07:25:22.038Z,7.95
2023-05-12T07:27:50.513Z,8.90
2023-05-12T07:30:18.488Z,7.90
2023-05-12T07:32:46.599Z,7.43
2023-05-12T07:35:14.620Z,7.43
2023-05-12T07:37:43.071Z,6.53
2023-05-12T07:40:11.201Z,6.55
2023-05-12T07:42:48.081Z,6.18
2023-05-12T07:45:22.981Z,6.13
2023-05-12T07:47:51.710Z,5.53
2023-05-12T07:50:19.838Z,5.18
2023-05-12T07:52:49.798Z,6.18
2023-05-12T07:55:19.519Z,5.72
2023-05-12T07:57:48.500Z,6.05
2023-05-12T08:00:16.702Z,4.80
2023-05-12T08:02:44.795Z,5.50
2023-05-12T08:05:12.807Z,4.90
2023-05-12T08:07:43.574Z,4.85
2023-05-12T08:10:13.134Z,4.07
2023-05-12T08:12:41.695Z,4.05
2023-05-12T08:15:09.986Z,4.47
2023-05-12T08:17:38.036Z,3.63
2023-05-12T08:20:06.763Z,4.05
2023-05-12T08:22:34.767Z,3.45
2023-05-12T08:25:03.046Z,3.72
2023-05-12T08:27:32.434Z,3.47
2023-05-12T08:30:00.218Z,3.17
2023-05-12T08:32:28.075Z,3.95
2023-05-12T08:34:55.886Z,3.67
2023-05-12T08:37:24.534Z,3.10
2023-05-12T08:39:52.548Z,2.67
2023-05-12T08:42:43.312Z,3.55
2023-05-12T08:45:11.905Z,3.08
2023-05-12T08:47:43.136Z,3.50
2023-05-12T08:50:12.898Z,3.38
2023-05-12T08:52:40.767Z,3.03
2023-05-12T08:55:09.992Z,2.60
2023-05-12T09:00:15.760Z,2.67
2023-05-12T09:02:52.946Z,2.00
2023-05-12T09:05:23.251Z,3.03
2023-05-12T09:07:54.776Z,4.28
2023-05-12T09:13:20.493Z,3.80
2023-05-12T09:15:49.589Z,3.70
2023-05-12T09:18:17.334Z,2.72
2023-05-12T09:20:44.956Z,1.85
2023-05-12T09:23:23.095Z,2.13
2023-05-12T09:26:08.974Z,2.00
2023-05-12T09:28:39.654Z,1.90
2023-05-12T09:31:23.815Z,1.80
2023-05-12T09:33:52.452Z,1.95
2023-05-12T09:36:22.435Z,1.50
2023-05-12T09:39:00.847Z,2.20
2023-05-12T09:41:31.484Z,1.85
2023-05-12T09:44:00.045Z,1.85
2023-05-12T09:46:27.863Z,2.05
2023-05-12T09:48:57.378Z,1.85
2023-05-12T09:51:26.984Z,2.40
2023-05-12T09:53:54.870Z,1.90
2023-05-12T09:56:22.953Z,2.15
2023-05-12T09:58:51.161Z,2.40
2023-05-12T10:01:23.265Z,2.28
2023-05-12T10:03:55.882Z,2.30
2023-05-12T10:06:30.498Z,2.15
2023-05-12T10:09:19.934Z,2.22
2023-05-12T10:11:52.055Z,2.57
2023-05-12T10:14:23.690Z,2.65
2023-05-12T10:19:21.020Z,2.60
2023-05-12T10:21:49.681Z,2.10
2023-05-12T10:24:17.922Z,2.05
2023-05-12T10:26:45.699Z,2.08
2023-05-12T10:29:14.182Z,2.10
2023-05-12T10:31:45.347Z,1.88
2023-05-12T10:34:24.728Z,2.00
2023-05-12T10:36:54.147Z,1.95
2023-05-12T10:39:29.401Z,1.60
2023-05-12T10:42:08.722Z,2.38
2023-05-12T10:44:37.565Z,5.03
2023-05-12T10:47:17.714Z,2.15
2023-05-12T10:49:46.382Z,1.92
2023-05-12T10:52:20.229Z,2.03
2023-05-12T10:54:48.148Z,1.83
2023-05-12T10:57:20.691Z,2.30
2023-05-12T10:59:56.973Z,2.00
2023-05-12T11:02:36.057Z,2.08
2023-05-12T11:05:13.133Z,2.35
2023-05-12T11:07:47.406Z,1.50
2023-05-12T11:10:17.224Z,1.33
2023-05-12T11:15:15.020Z,1.20
2023-05-12T11:17:44.396Z,1.10
2023-05-12T11:20:26.709Z,1.10
2023-05-12T11:22:55.400Z,1.42
2023-05-12T11:25:23.564Z,1.42
2023-05-12T11:27:51.743Z,1.45
2023-05-12T11:30:19.934Z,1.40
2023-05-12T11:32:48.268Z,1.10
2023-05-12T11:35:20.022Z,2.05
2023-05-12T11:37:47.762Z,1.60
2023-05-12T11:40:23.099Z,1.70
2023-05-12T11:42:53.034Z,2.08
2023-05-12T11:45:24.208Z,1.88
2023-05-12T11:47:53.477Z,1.80
2023-05-12T11:50:24.857Z,1.50
2023-05-12T11:52:53.774Z,2.20
2023-05-12T11:55:23.777Z,2.25
2023-05-12T11:57:59.946Z,1.85
2023-05-12T12:00:36.584Z,1.50
2023-05-12T12:03:15.281Z,1.40
2023-05-12T12:05:45.986Z,1.60
2023-05-12T12:08:15.985Z,1.70
2023-05-12T12:10:45.867Z,1.73
2023-05-12T12:13:21.721Z,1.70
2023-05-12T12:15:50.691Z,1.70
2023-05-12T12:18:19.191Z,1.60
2023-05-12T12:20:47.603Z,2.17
2023-05-12T12:23:15.530Z,1.73
2023-05-12T12:25:43.730Z,1.98
2023-05-12T12:28:12.285Z,2.40
2023-05-12T12:30:43.310Z,2.72
2023-05-12T12:33:14.786Z,2.47
2023-05-12T12:35:42.494Z,2.55
2023-05-12T12:38:12.814Z,2.67
2023-05-12T12:40:40.574Z,2.72
2023-05-12T12:43:08.604Z,2.00
2023-05-12T12:45:36.513Z,2.10
2023-05-12T12:48:06.694Z,2.67
2023-05-12T12:50:36.012Z,2.58
2023-05-12T12:53:03.930Z,3.07
2023-05-12T12:55:31.708Z,3.22
2023-05-12T12:57:59.438Z,4.00
2023-05-12T13:00:27.717Z,3.33
2023-05-12T13:02:55.847Z,3.40
2023-05-12T13:05:23.835Z,3.10
2023-05-12T13:07:52.344Z,3.05
2023-05-12T13:10:20.105Z,2.67
2023-05-12T13:12:47.796Z,2.67
2023-05-12T13:15:16.636Z,2.92
2023-05-12T13:17:48.695Z,2.60
2023-05-12T13:20:19.178Z,3.13
2023-05-12T13:22:47.707Z,3.30
2023-05-12T13:25:15.791Z,3.30
2023-05-12T13:27:43.753Z,3.42
2023-05-12T13:30:14.790Z,3.58
2023-05-12T13:32:43.454Z,3.15
2023-05-12T13:35:14.018Z,3.28
2023-05-12T13:37:41.779Z,2.72
2023-05-12T13:40:10.060Z,2.50
2023-05-12T13:42:40.145Z,2.42
2023-05-12T13:45:11.257Z,2.70
2023-05-12T13:47:40.024Z,2.40
2023-05-12T13:50:08.665Z,2.72
2023-05-12T13:52:36.361Z,2.30
2023-05-12T13:55:04.957Z,2.40
2023-05-12T13:57:32.699Z,2.50
2023-05-12T14:00:00.939Z,2.08
2023-05-12T14:02:28.948Z,1.40
2023-05-12T14:04:58.865Z,1.88
2023-05-12T14:07:26.740Z,1.55
2023-05-12T14:09:54.531Z,1.73
2023-05-12T14:12:22.522Z,2.00
2023-05-12T14:14:50.613Z,1.88
2023-05-12T14:17:18.743Z,2.13
2023-05-12T14:19:46.781Z,1.40
2023-05-12T14:22:25.402Z,1.88
2023-05-12T14:24:55.635Z,1.77
2023-05-12T14:27:24.204Z,1.80
2023-05-12T14:29:52.037Z,1.70
2023-05-12T14:32:19.947Z,1.42
2023-05-12T14:34:47.698Z,1.65
2023-05-12T14:37:15.388Z,1.80
2023-05-12T14:39:43.106Z,1.80
2023-05-12T14:42:10.887Z,2.10
2023-05-12T14:44:38.591Z,1.70
2023-05-12T14:47:09.060Z,1.60
2023-05-12T14:49:37.293Z,1.73
2023-05-12T14:52:05.330Z,1.67
2023-05-12T14:54:34.473Z,1.65
2023-05-12T14:57:04.115Z,1.67
2023-05-12T15:02:00.226Z,1.80
2023-05-12T15:04:28.004Z,1.60
2023-05-12T15:06:55.723Z,2.03
2023-05-12T15:09:23.521Z,1.60
2023-05-12T15:11:51.722Z,2.00
2023-05-12T15:14:19.425Z,1.85
2023-05-12T15:16:47.534Z,2.13
2023-05-12T15:19:15.568Z,1.80
2023-05-12T15:21:43.591Z,1.95
2023-05-12T15:24:11.609Z,2.08
2023-05-12T15:26:48.161Z,2.08
2023-05-12T15:29:15.870Z,2.13
2023-05-12T15:31:44.563Z,2.00
2023-05-12T15:34:12.999Z,2.00
2023-05-12T15:36:41.647Z,1.75
2023-05-12T15:39:09.468Z,2.00
2023-05-12T15:41:37.335Z,2.25
2023-05-12T15:44:05.375Z,2.03
2023-05-12T15:46:33.289Z,2.42
2023-05-12T15:49:01.174Z,2.30
2023-05-12T15:51:29.868Z,2.13
2023-05-12T15:53:57.669Z,1.75
2023-05-12T15:56:25.697Z,1.80
2023-05-12T15:58:53.927Z,1.70
2023-05-12T16:01:22.677Z,1.60
2023-05-12T16:03:54.983Z,1.92
2023-05-12T16:06:22.909Z,1.73
2023-05-12T16:08:50.783Z,1.60
2023-05-12T16:11:18.597Z,1.52
2023-05-12T16:13:46.511Z,1.50
2023-05-12T16:16:14.465Z,1.17
2023-05-12T16:18:43.636Z,1.35
2023-05-12T16:21:12.805Z,1.58
2023-05-12T16:23:40.668Z,1.50
2023-05-12T16:26:08.621Z,1.20
2023-05-12T16:28:36.459Z,1.63
2023-05-12T16:31:04.744Z,1.30
2023-05-12T16:33:33.298Z,1.45
2023-05-12T16:36:01.767Z,1.40
2023-05-12T16:38:32.332Z,1.52
2023-05-12T16:41:00.717Z,1.60
2023-05-12T16:43:29.311Z,1.80
2023-05-12T16:46:01.521Z,1.63
2023-05-12T16:48:34.198Z,1.60
2023-05-12T16:51:11.510Z,1.40
2023-05-12T16:53:40.523Z,1.30
2023-05-12T16:56:08.541Z,1.73
2023-05-12T16:58:36.253Z,1.40
2023-05-12T17:01:04.768Z,1.65
2023-05-12T17:03:32.942Z,1.50
2023-05-12T17:06:00.984Z,1.33
2023-05-12T17:08:28.733Z,1.60
2023-05-12T17:10:56.621Z,1.55
2023-05-12T17:13:24.676Z,1.60
2023-05-12T17:15:52.688Z,1.27
2023-05-12T17:18:20.577Z,1.20
2023-05-12T17:20:48.263Z,1.30
2023-05-12T17:23:16.827Z,1.40
2023-05-12T17:25:44.598Z,1.40
2023-05-12T17:28:12.676Z,1.10
2023-05-12T17:30:40.946Z,1.42
2023-05-12T17:33:09.111Z,1.10
2023-05-12T17:35:37.229Z,1.25
2023-05-12T17:38:05.215Z,1.27
2023-05-12T17:40:33.186Z,1.50
2023-05-12T17:43:01.420Z,1.73
2023-05-12T17:45:29.293Z,1.65
2023-05-12T17:47:57.411Z,1.02
2023-05-12T17:50:25.357Z,1.58
2023-05-12T17:52:54.327Z,1.40
2023-05-12T17:55:22.652Z,1.58
2023-05-12T17:57:50.757Z,1.48
2023-05-12T18:00:18.676Z,1.83
2023-05-12T18:02:46.708Z,1.65
2023-05-12T18:05:14.437Z,1.83
2023-05-12T18:07:42.847Z,2.47
2023-05-12T18:10:11.604Z,2.13
2023-05-12T18:12:39.546Z,2.30
2023-05-12T18:15:11.146Z,1.90
2023-05-12T18:17:38.886Z,2.20
2023-05-12T18:20:07.465Z,1.95
2023-05-12T18:22:35.818Z,1.77
2023-05-12T18:25:04.144Z,2.15
2023-05-12T18:27:32.104Z,1.80
2023-05-12T18:30:00.025Z,1.50
2023-05-12T18:32:27.864Z,1.70
2023-05-12T18:34:55.714Z,1.70
2023-05-12T18:37:24.922Z,1.60
2023-05-12T18:39:54.369Z,1.90
2023-05-12T18:42:22.103Z,1.70
2023-05-12T18:44:50.017Z,1.67
2023-05-12T18:47:17.832Z,1.92
2023-05-12T18:49:47.170Z,2.60
2023-05-12T18:52:14.855Z,1.90
2023-05-12T18:54:44.158Z,1.85
2023-05-12T18:57:13.175Z,2.20
2023-05-12T18:59:42.354Z,2.13
2023-05-12T19:02:13.286Z,2.20
2023-05-12T19:04:43.053Z,2.55
2023-05-12T19:07:15.251Z,3.50
2023-05-12T19:09:44.360Z,2.97
2023-05-12T19:12:12.988Z,3.20
2023-05-12T19:14:40.937Z,3.70
2023-05-12T19:17:08.808Z,4.82
2023-05-12T19:19:36.603Z,5.03
2023-05-12T19:22:04.932Z,5.35
2023-05-12T19:24:32.862Z,3.50
2023-05-12T19:27:01.580Z,4.13
2023-05-12T19:29:29.401Z,3.33
2023-05-12T19:31:57.206Z,3.75
2023-05-12T19:34:25.153Z,4.03
2023-05-12T19:36:53.125Z,3.55
2023-05-12T19:39:20.831Z,3.50
2023-05-12T19:41:48.537Z,4.25
2023-05-12T19:44:18.025Z,4.60
2023-05-12T19:46:47.121Z,5.55
2023-05-12T19:49:15.464Z,5.47
2023-05-12T19:51:43.276Z,4.55
2023-05-12T19:54:10.998Z,4.80
2023-05-12T19:56:38.674Z,4.78
2023-05-12T19:59:06.961Z,5.32
2023-05-12T20:01:34.746Z,4.70
2023-05-12T20:04:02.779Z,4.22
2023-05-12T20:06:33.690Z,5.30
2023-05-12T20:09:01.312Z,6.07
2023-05-12T20:11:29.255Z,5.90
2023-05-12T20:13:57.471Z,6.03
2023-05-12T20:16:28.169Z,5.47
2023-05-12T20:18:57.111Z,5.35
2023-05-12T20:21:25.314Z,5.53
2023-05-12T20:23:53.437Z,5.63
2023-05-12T20:26:21.274Z,5.45
2023-05-12T20:28:49.172Z,5.30
2023-05-12T20:31:18.674Z,4.75
2023-05-12T20:33:46.440Z,5.20
2023-05-12T20:36:14.081Z,5.35
2023-05-12T20:38:45.234Z,5.07
2023-05-12T20:41:13.825Z,5.00
2023-05-12T20:43:41.992Z,4.68
2023-05-12T20:46:10.029Z,5.53
2023-05-12T20:48:38.709Z,4.35
2023-05-12T20:51:11.629Z,4.80
2023-05-12T20:53:40.436Z,4.70
2023-05-12T20:56:08.722Z,4.95
2023-05-12T20:58:36.825Z,3.97
2023-05-12T21:01:04.643Z,5.25
2023-05-12T21:03:34.284Z,6.80
2023-05-12T21:06:04.481Z,6.82
2023-05-12T21:11:00.055Z,6.72
2023-05-12T21:13:28.031Z,6.15
2023-05-12T21:15:56.414Z,6.13
2023-05-12T21:18:24.919Z,5.00
2023-05-12T21:20:52.872Z,5.00
2023-05-12T21:23:20.784Z,5.85
2023-05-12T21:25:49.218Z,5.10
2023-05-12T21:28:16.981Z,5.60
2023-05-12T21:30:45.224Z,5.53
2023-05-12T21:33:13.112Z,4.72
2023-05-12T21:35:41.439Z,5.55
2023-05-12T21:38:11.352Z,5.60
2023-05-12T21:40:39.387Z,5.55
2023-05-12T21:43:07.376Z,5.65
2023-05-12T21:45:35.161Z,5.45
2023-05-12T21:48:03.233Z,5.40
2023-05-12T21:50:31.105Z,6.25
2023-05-12T21:52:59.107Z,7.32
2023-05-12T21:55:26.865Z,6.50
2023-05-12T21:57:54.488Z,6.65
2023-05-12T22:00:22.588Z,5.70
2023-05-12T22:02:51.422Z,5.57
2023-05-12T22:05:19.397Z,5.38
2023-05-12T22:07:47.188Z,5.57
2023-05-12T22:10:14.975Z,5.97
2023-05-12T22:12:42.878Z,5.13
2023-05-12T22:15:10.970Z,5.68
2023-05-12T22:17:39.884Z,6.50
2023-05-12T22:20:11.537Z,6.60
2023-05-12T22:22:39.554Z,5.60
2023-05-12T22:25:08.019Z,5.32
2023-05-12T22:27:37.331Z,5.53
2023-05-12T22:30:06.185Z,5.75
2023-05-12T22:32:34.097Z,6.18
2023-05-12T22:35:02.656Z,5.55
2023-05-12T22:37:31.472Z,5.38
2023-05-12T22:39:59.338Z,6.53
2023-05-12T22:42:28.601Z,6.30
2023-05-12T22:44:57.486Z,6.22
2023-05-12T22:47:25.498Z,5.85
2023-05-12T22:49:53.429Z,6.47
2023-05-12T22:52:21.421Z,5.63
2023-05-12T22:54:55.192Z,5.70
2023-05-12T22:57:23.280Z,4.85
2023-05-12T22:59:52.040Z,4.60
2023-05-12T23:02:19.837Z,5.03
2023-05-12T23:04:50.533Z,5.15
2023-05-12T23:07:18.502Z,4.88
2023-05-12T23:09:46.291Z,5.45
2023-05-12T23:12:14.940Z,5.45
2023-05-12T23:14:42.717Z,6.00
2023-05-12T23:17:10.690Z,5.28
2023-05-12T23:19:40.110Z,5.45
2023-05-12T23:22:08.123Z,6.05
2023-05-12T23:24:36.555Z,5.40
2023-05-12T23:27:05.766Z,5.20
2023-05-12T23:29:34.562Z,5.47
2023-05-12T23:32:02.962Z,5.32
2023-05-12T23:34:30.898Z,5.57
2023-05-12T23:36:58.879Z,5.35
2023-05-12T23:39:26.838Z,5.85
2023-05-12T23:41:54.672Z,5.30
2023-05-12T23:44:22.451Z,5.63
2023-05-12T23:46:50.593Z,6.03
2023-05-12T23:49:18.639Z,5.25
2023-05-12T23:51:46.363Z,7.32
2023-05-12T23:54:14.122Z,6.60
2023-05-12T23:56:45.036Z,6.45
2023-05-12T23:59:12.887Z,6.43
